Time;durP1;ratioP1;P1;durP2;ratioP2;P2;SDS_P1;SDS_P2;PMS_P1;PMS_P2;Temp;Humidity;BMP_temperature;BMP_pressure;BME280_temperature;BME280_humidity;BME280_pressure;Samples;Min_cycle;Max_cycle;Signal;HPM_P1;HPM_P2
2022/09/09 00:01:36;;;;;;;58.97;49.05;;;23.90;61.30;;;;;;4997840;28;92079;-53
2022/09/09 00:04:07;;;;;;;59.45;49.35;;;23.90;61.20;;;;;;5008831;27;91537;-55
2022/09/09 00:07:03;;;;;;;59.08;49.22;;;23.90;61.30;;;;;;5003867;28;88827;-54
2022/09/09 00:09:41;;;;;;;59.15;49.15;;;23.90;61.30;;;;;;5008493;28;91786;-54
2022/09/09 00:12:33;;;;;;;59.97;49.38;;;23.90;61.30;;;;;;5008448;27;94752;-56
2022/09/09 00:15:05;;;;;;;60.63;49.47;;;23.90;61.40;;;;;;5008622;28;91354;-54
2022/09/09 00:17:55;;;;;;;59.60;49.40;;;23.90;61.30;;;;;;5010654;28;91271;-58
2022/09/09 00:20:23;;;;;;;59.45;49.25;;;23.80;61.40;;;;;;5005600;28;92561;-51
2022/09/09 00:23:12;;;;;;;59.35;49.33;;;23.80;61.40;;;;;;5012593;27;92051;-54
2022/09/09 00:25:58;;;;;;;59.80;49.15;;;23.80;61.30;;;;;;5004585;28;90713;-55
2022/09/09 00:28:26;;;;;;;59.03;49.22;;;23.80;61.30;;;;;;5005821;27;90544;-55
2022/09/09 00:30:52;;;;;;;60.00;49.25;;;23.80;61.20;;;;;;5006371;28;91530;-57
2022/09/09 00:33:22;;;;;;;59.67;49.40;;;23.80;61.20;;;;;;5013110;28;89034;-55
2022/09/09 00:36:00;;;;;;;58.90;49.13;;;23.80;61.40;;;;;;5006052;27;91462;-55
2022/09/09 00:38:35;;;;;;;59.05;49.45;;;23.80;61.40;;;;;;5003765;28;89807;-55
2022/09/09 00:41:29;;;;;;;58.92;49.20;;;23.80;61.30;;;;;;4998864;28;92044;-57
2022/09/09 00:44:01;;;;;;;59.15;49.30;;;23.80;61.30;;;;;;5004985;28;95923;-57
2022/09/09 00:46:41;;;;;;;59.22;49.33;;;23.80;61.30;;;;;;5013497;27;89576;-59
2022/09/09 00:49:09;;;;;;;59.45;49.28;;;23.80;61.30;;;;;;5011295;28;91223;-57
2022/09/09 00:52:18;;;;;;;60.45;49.38;;;23.70;61.30;;;;;;5002160;27;91926;-55
2022/09/09 00:55:08;;;;;;;59.53;49.42;;;23.70;61.30;;;;;;4987773;28;91031;-55
2022/09/09 00:57:35;;;;;;;61.30;49.30;;;23.70;61.30;;;;;;5007052;28;89662;-55
2022/09/09 01:00:23;;;;;;;58.90;49.15;;;23.70;61.40;;;;;;5011547;27;92583;-60
2022/09/09 01:03:25;;;;;;;59.10;49.20;;;23.80;61.40;;;;;;5016380;27;90005;-58
2022/09/09 01:06:16;;;;;;;59.00;49.22;;;23.70;61.40;;;;;;5007617;27;91595;-55
2022/09/09 01:09:19;;;;;;;59.13;49.28;;;23.70;61.30;;;;;;5009947;28;92512;-58
2022/09/09 01:12:12;;;;;;;60.10;49.45;;;23.70;61.20;;;;;;4999559;27;90328;-55
2022/09/09 01:14:59;;;;;;;59.63;49.33;;;23.70;61.30;;;;;;5002963;27;91444;-55
2022/09/09 01:17:34;;;;;;;59.53;49.17;;;23.60;61.30;;;;;;5002041;28;91069;-56
2022/09/09 01:20:17;;;;;;;58.90;49.05;;;23.60;61.30;;;;;;5012294;27;91029;-54
2022/09/09 01:23:03;;;;;;;58.83;49.13;;;23.60;61.30;;;;;;5017168;28;90302;-59
2022/09/09 01:25:49;;;;;;;58.53;49.00;;;23.60;61.40;;;;;;5010196;27;91106;-54
2022/09/09 01:28:21;;;;;;;58.90;49.42;;;23.60;61.40;;;;;;5008199;27;91390;-54
2022/09/09 01:30:47;;;;;;;59.45;49.35;;;23.60;61.30;;;;;;5009484;27;92258;-57
2022/09/09 01:33:16;;;;;;;59.58;49.42;;;23.70;61.30;;;;;;5008176;27;90763;-56
2022/09/09 01:35:55;;;;;;;58.60;49.33;;;23.60;61.10;;;;;;5000019;27;93980;-56
2022/09/09 01:38:23;;;;;;;59.53;49.15;;;23.70;61.20;;;;;;5011663;27;93294;-57
2022/09/09 01:40:51;;;;;;;61.47;49.45;;;23.60;61.20;;;;;;5006675;27;95179;-57
2022/09/09 01:43:20;;;;;;;59.58;49.25;;;23.60;61.30;;;;;;4991672;27;93854;-53
2022/09/09 01:45:49;;;;;;;58.38;49.08;;;23.60;61.30;;;;;;4999355;28;91336;-56
2022/09/09 01:48:15;;;;;;;58.50;49.22;;;23.60;61.30;;;;;;5009207;27;91324;-56
2022/09/09 01:50:41;;;;;;;59.97;49.35;;;23.60;61.30;;;;;;5010862;27;90064;-53
2022/09/09 01:53:07;;;;;;;58.60;49.35;;;23.60;61.30;;;;;;5014248;27;92196;-56
2022/09/09 01:55:38;;;;;;;59.15;49.15;;;23.60;61.20;;;;;;5008296;27;91369;-57
2022/09/09 01:58:28;;;;;;;60.83;49.22;;;23.60;61.30;;;;;;5017537;27;90193;-53
2022/09/09 02:01:04;;;;;;;58.25;49.10;;;23.60;61.20;;;;;;5002543;27;90856;-59
2022/09/09 02:03:33;;;;;;;59.58;49.20;;;23.60;61.20;;;;;;5006055;27;91977;-58
2022/09/09 02:06:27;;;;;;;58.65;49.20;;;23.60;61.20;;;;;;4999510;27;95299;-54
2022/09/09 02:08:56;;;;;;;58.58;49.05;;;23.60;61.10;;;;;;5005125;27;92463;-59
2022/09/09 02:11:24;;;;;;;59.05;49.00;;;23.60;61.10;;;;;;5003710;27;90023;-58
2022/09/09 02:13:56;;;;;;;58.72;49.15;;;23.60;61.00;;;;;;4999254;27;97164;-59
2022/09/09 02:16:40;;;;;;;60.03;49.00;;;23.60;61.10;;;;;;5003817;27;92425;-58
2022/09/09 02:19:24;;;;;;;60.45;49.17;;;23.60;61.00;;;;;;5013035;27;91290;-56
2022/09/09 02:21:51;;;;;;;58.90;49.13;;;23.60;60.90;;;;;;5008265;27;91329;-57
2022/09/09 02:24:17;;;;;;;59.45;49.35;;;23.60;61.00;;;;;;5000938;27;91916;-52
2022/09/09 02:26:46;;;;;;;59.63;49.35;;;23.60;61.00;;;;;;5004289;27;92447;-57
2022/09/09 02:29:17;;;;;;;58.60;49.10;;;23.60;61.00;;;;;;5003315;27;91223;-55
2022/09/09 02:31:45;;;;;;;59.03;49.33;;;23.60;61.00;;;;;;5004621;28;90274;-58
2022/09/09 02:34:13;;;;;;;60.13;49.13;;;23.50;60.90;;;;;;5000653;27;90048;-58
2022/09/09 02:36:42;;;;;;;59.13;49.25;;;23.60;61.00;;;;;;5003710;28;95233;-56
2022/09/09 02:39:10;;;;;;;59.45;49.13;;;23.50;60.90;;;;;;5001523;28;93328;-53
2022/09/09 02:41:39;;;;;;;58.85;49.22;;;23.50;61.10;;;;;;5005887;27;90522;-54
2022/09/09 02:44:17;;;;;;;59.85;49.35;;;23.50;61.10;;;;;;5000365;27;90190;-53
2022/09/09 02:47:04;;;;;;;59.67;49.22;;;23.50;61.10;;;;;;5000840;27;91066;-56
2022/09/09 02:49:29;;;;;;;59.90;49.22;;;23.50;61.20;;;;;;5003002;28;94181;-52
2022/09/09 02:52:05;;;;;;;59.35;49.15;;;23.50;61.20;;;;;;5007762;27;91904;-58
2022/09/09 02:54:37;;;;;;;58.92;49.13;;;23.50;61.40;;;;;;5017496;28;89866;-57
2022/09/09 02:57:10;;;;;;;59.15;49.25;;;23.50;61.40;;;;;;5007117;27;91214;-56
2022/09/09 02:59:36;;;;;;;59.08;49.15;;;23.50;61.40;;;;;;4999805;28;94714;-58
2022/09/09 03:02:02;;;;;;;59.03;49.08;;;23.50;61.40;;;;;;5004742;27;89891;-58
2022/09/09 03:04:28;;;;;;;59.70;49.25;;;23.50;61.40;;;;;;5003135;28;91872;-55
2022/09/09 03:06:54;;;;;;;58.80;49.17;;;23.50;61.40;;;;;;5004784;27;94517;-58
2022/09/09 03:09:20;;;;;;;58.83;49.25;;;23.50;61.40;;;;;;5005325;28;91217;-58
2022/09/09 03:11:45;;;;;;;58.90;49.15;;;23.50;61.40;;;;;;5007667;28;93129;-57
2022/09/09 03:14:11;;;;;;;60.28;49.28;;;23.40;61.40;;;;;;5011648;27;90402;-56
2022/09/09 03:16:37;;;;;;;58.85;49.20;;;23.40;61.40;;;;;;5005515;28;91389;-53
2022/09/09 03:19:03;;;;;;;60.35;49.25;;;23.40;61.60;;;;;;5009442;27;91071;-55
2022/09/09 03:21:28;;;;;;;59.70;49.28;;;23.40;61.50;;;;;;5002594;28;90243;-56
2022/09/09 03:23:54;;;;;;;59.58;49.22;;;23.40;61.30;;;;;;5011191;28;90212;-55
2022/09/09 03:26:20;;;;;;;59.60;49.25;;;23.50;61.10;;;;;;5004534;28;93494;-55
2022/09/09 03:28:45;;;;;;;58.78;49.45;;;23.50;61.20;;;;;;4998005;27;93752;-57
2022/09/09 03:31:11;;;;;;;59.60;49.45;;;23.40;61.20;;;;;;5004981;27;93828;-54
2022/09/09 03:33:37;;;;;;;59.83;49.22;;;23.40;61.20;;;;;;5002809;28;89282;-58
2022/09/09 03:36:04;;;;;;;59.85;49.35;;;23.40;61.10;;;;;;5003637;27;92308;-56
2022/09/09 03:38:31;;;;;;;59.90;49.45;;;23.50;61.20;;;;;;5001298;28;92819;-56
2022/09/09 03:40:57;;;;;;;59.17;49.17;;;23.40;61.20;;;;;;4999690;28;91771;-59
2022/09/09 03:43:26;;;;;;;59.17;49.20;;;23.40;61.20;;;;;;5001451;27;90084;-58
2022/09/09 03:45:53;;;;;;;60.58;49.55;;;23.40;61.20;;;;;;5004069;27;91412;-57
2022/09/09 03:48:19;;;;;;;59.80;49.35;;;23.50;61.30;;;;;;5008854;28;90828;-54
2022/09/09 03:50:49;;;;;;;58.25;48.90;;;23.40;61.20;;;;;;5017333;28;90207;-55
2022/09/09 03:53:15;;;;;;;59.60;49.35;;;23.40;61.20;;;;;;5009069;27;90278;-58
2022/09/09 03:55:49;;;;;;;58.70;49.25;;;23.40;61.10;;;;;;5010044;27;91119;-57
2022/09/09 03:58:18;;;;;;;59.92;49.20;;;23.40;61.10;;;;;;5003157;27;91909;-57
2022/09/09 04:00:44;;;;;;;61.00;49.25;;;23.50;61.10;;;;;;5010811;27;97796;-56
2022/09/09 04:03:11;;;;;;;59.38;49.22;;;23.40;61.00;;;;;;4995789;27;95637;-58
2022/09/09 04:05:39;;;;;;;59.95;49.55;;;23.40;61.20;;;;;;5000644;28;92574;-58
2022/09/09 04:08:08;;;;;;;61.38;49.33;;;23.40;61.20;;;;;;4999582;28;94324;-58
2022/09/09 04:10:38;;;;;;;58.95;49.13;;;23.40;61.00;;;;;;5004601;27;92127;-58
2022/09/09 04:13:04;;;;;;;60.47;49.72;;;23.40;61.10;;;;;;5011076;28;92604;-55
2022/09/09 04:15:30;;;;;;;60.67;49.50;;;23.40;61.00;;;;;;5005695;27;91493;-58
2022/09/09 04:17:56;;;;;;;60.95;49.72;;;23.40;61.20;;;;;;5011506;28;91007;-55
2022/09/09 04:20:22;;;;;;;60.50;49.33;;;23.40;61.30;;;;;;5008566;28;89541;-57
2022/09/09 04:22:48;;;;;;;59.05;49.35;;;23.40;61.20;;;;;;5008482;27;89206;-56
2022/09/09 04:25:14;;;;;;;61.28;49.60;;;23.40;61.10;;;;;;5008227;27;91107;-57
2022/09/09 04:27:42;;;;;;;60.38;49.38;;;23.40;61.00;;;;;;5011296;27;90993;-59
2022/09/09 04:30:09;;;;;;;60.50;49.40;;;23.40;61.00;;;;;;4995584;27;91302;-55
2022/09/09 04:32:35;;;;;;;61.17;49.60;;;23.40;61.10;;;;;;5008118;27;91108;-57
2022/09/09 04:35:01;;;;;;;59.20;49.33;;;23.40;60.90;;;;;;5006614;28;90112;-58
2022/09/09 04:37:27;;;;;;;58.67;49.10;;;23.40;61.00;;;;;;5008692;28;90569;-58
2022/09/09 04:39:52;;;;;;;60.13;49.58;;;23.40;61.00;;;;;;5006591;28;90067;-58
2022/09/09 04:42:19;;;;;;;61.53;49.25;;;23.40;61.00;;;;;;5006794;27;90341;-56
2022/09/09 04:44:45;;;;;;;62.47;49.35;;;23.30;61.00;;;;;;5000839;27;91160;-56
2022/09/09 04:47:11;;;;;;;60.60;49.38;;;23.40;60.90;;;;;;5017499;27;90975;-55
2022/09/09 04:49:38;;;;;;;60.42;49.40;;;23.40;60.80;;;;;;5018507;28;90021;-56
2022/09/09 04:52:04;;;;;;;59.70;49.45;;;23.40;60.70;;;;;;5008814;28;90023;-59
2022/09/09 04:54:30;;;;;;;61.63;49.60;;;23.40;60.70;;;;;;5009933;27;92297;-55
2022/09/09 04:56:56;;;;;;;59.30;49.22;;;23.50;60.50;;;;;;5009929;28;91759;-55
2022/09/09 04:59:22;;;;;;;59.97;49.28;;;23.40;60.60;;;;;;5004532;28;90047;-56
2022/09/09 05:01:50;;;;;;;60.28;49.20;;;23.40;60.60;;;;;;5008464;27;90300;-55
2022/09/09 05:04:16;;;;;;;60.72;49.65;;;23.40;60.70;;;;;;5008137;28;93334;-55
2022/09/09 05:06:42;;;;;;;59.13;49.30;;;23.50;60.90;;;;;;5008566;27;92997;-54
2022/09/09 05:09:08;;;;;;;61.55;49.35;;;23.50;60.70;;;;;;4997867;27;90864;-57
2022/09/09 05:11:36;;;;;;;60.20;49.35;;;23.50;60.70;;;;;;5001857;27;91844;-53
2022/09/09 05:14:02;;;;;;;60.40;49.47;;;23.40;60.40;;;;;;5013249;27;91208;-55
2022/09/09 05:16:29;;;;;;;62.40;49.50;;;23.50;60.50;;;;;;5007534;27;89913;-56
2022/09/09 05:18:55;;;;;;;59.95;49.40;;;23.40;60.30;;;;;;5007338;27;91552;-58
2022/09/09 05:21:24;;;;;;;60.92;49.33;;;23.40;60.40;;;;;;5010153;27;89839;-52
2022/09/09 05:23:51;;;;;;;61.92;49.47;;;23.40;60.30;;;;;;5015745;27;91344;-56
2022/09/09 05:26:18;;;;;;;59.33;49.50;;;23.50;60.30;;;;;;5005260;28;91404;-54
2022/09/09 05:28:44;;;;;;;58.58;49.03;;;23.50;60.30;;;;;;5002178;27;89694;-58
2022/09/09 05:31:13;;;;;;;60.40;49.53;;;23.40;60.40;;;;;;5008265;27;91076;-52
2022/09/09 05:33:42;;;;;;;62.35;49.28;;;23.40;60.40;;;;;;5010868;28;91589;-55
2022/09/09 05:36:10;;;;;;;60.42;49.45;;;23.40;60.40;;;;;;5008148;27;91338;-52
2022/09/09 05:38:37;;;;;;;59.78;49.42;;;23.50;60.50;;;;;;4997832;27;90794;-56
2022/09/09 05:41:03;;;;;;;59.95;49.30;;;23.40;60.40;;;;;;5001944;27;90326;-56
2022/09/09 05:43:29;;;;;;;60.55;49.55;;;23.50;60.30;;;;;;5002068;27;91882;-54
2022/09/09 05:46:07;;;;;;;61.95;49.53;;;23.50;60.30;;;;;;5004178;28;92000;-59
2022/09/09 05:48:35;;;;;;;60.72;49.55;;;23.50;60.50;;;;;;5010528;27;90058;-57
2022/09/09 05:51:02;;;;;;;60.47;49.45;;;23.40;60.50;;;;;;5009509;28;98799;-58
2022/09/09 05:53:32;;;;;;;60.03;49.17;;;23.50;60.50;;;;;;5016081;27;91450;-55
2022/09/09 05:56:12;;;;;;;61.67;49.60;;;23.50;60.40;;;;;;4999618;27;91502;-51
2022/09/09 05:58:39;;;;;;;59.33;49.28;;;23.40;60.40;;;;;;4993597;28;90168;-51
2022/09/09 06:01:07;;;;;;;60.67;49.45;;;23.40;60.30;;;;;;5005612;27;91152;-55
2022/09/09 06:03:35;;;;;;;62.38;49.47;;;23.40;60.40;;;;;;5008211;28;96472;-55
2022/09/09 06:06:05;;;;;;;62.03;49.58;;;23.50;60.30;;;;;;5007098;27;90163;-57
2022/09/09 06:08:31;;;;;;;60.30;49.60;;;23.50;60.20;;;;;;5000239;27;91293;-52
2022/09/09 06:11:11;;;;;;;60.90;49.40;;;23.50;60.20;;;;;;5004339;27;91955;-55
2022/09/09 06:13:38;;;;;;;61.97;49.65;;;23.40;60.20;;;;;;5007437;28;91427;-52
2022/09/09 06:16:07;;;;;;;59.45;49.38;;;23.50;60.30;;;;;;5011433;28;91845;-53
2022/09/09 06:18:32;;;;;;;61.38;49.45;;;23.40;60.30;;;;;;5000567;28;89954;-52
2022/09/09 06:21:04;;;;;;;62.45;49.63;;;23.40;60.10;;;;;;5009501;28;92376;-53
2022/09/09 06:23:30;;;;;;;62.70;49.53;;;23.50;60.20;;;;;;5011498;27;94063;-55
2022/09/09 06:26:05;;;;;;;61.00;49.53;;;23.40;60.20;;;;;;5013020;27;91647;-54
2022/09/09 06:28:32;;;;;;;60.67;49.53;;;23.50;60.10;;;;;;4997112;27;90295;-56
2022/09/09 06:31:02;;;;;;;59.85;49.05;;;23.50;60.10;;;;;;5008917;28;90775;-51
2022/09/09 06:33:32;;;;;;;60.83;49.35;;;23.50;60.10;;;;;;5008851;28;92828;-53
2022/09/09 06:35:58;;;;;;;60.25;49.55;;;23.50;60.40;;;;;;5006811;28;92049;-56
2022/09/09 06:38:23;;;;;;;59.35;49.17;;;23.50;60.20;;;;;;5004582;27;91191;-53
2022/09/09 06:40:57;;;;;;;59.90;49.38;;;23.50;60.30;;;;;;5001736;27;89869;-56
2022/09/09 06:43:23;;;;;;;59.92;49.53;;;23.50;60.30;;;;;;4995314;27;91095;-53
2022/09/09 06:46:00;;;;;;;59.88;49.63;;;23.50;60.10;;;;;;5007281;28;91058;-56
2022/09/09 06:48:27;;;;;;;61.30;49.58;;;23.50;60.00;;;;;;5009318;28;90133;-56
2022/09/09 06:51:06;;;;;;;60.03;49.72;;;23.60;60.10;;;;;;5009853;28;89971;-54
2022/09/09 06:53:33;;;;;;;62.35;49.60;;;23.60;60.00;;;;;;5007233;27;90568;-53
2022/09/09 06:56:16;;;;;;;60.22;49.45;;;23.60;59.90;;;;;;5003633;27;91002;-54
2022/09/09 06:58:43;;;;;;;60.70;49.53;;;23.60;60.00;;;;;;4999007;27;92724;-51
2022/09/09 07:01:14;;;;;;;60.35;49.50;;;23.60;60.00;;;;;;5002947;27;94759;-55
2022/09/09 07:03:42;;;;;;;61.58;49.50;;;23.60;59.80;;;;;;4998680;27;92168;-52
2022/09/09 07:06:13;;;;;;;61.13;49.53;;;23.70;59.90;;;;;;5004998;28;95920;-52
2022/09/09 07:08:39;;;;;;;60.30;49.53;;;23.70;59.90;;;;;;5000419;28;90814;-55
2022/09/09 07:11:07;;;;;;;68.13;49.63;;;23.60;60.10;;;;;;5012541;28;91606;-53
2022/09/09 07:13:34;;;;;;;60.60;49.70;;;23.60;60.00;;;;;;5000640;27;91233;-53
2022/09/09 07:16:11;;;;;;;60.78;49.38;;;23.70;60.00;;;;;;5005474;27;90868;-55
2022/09/09 07:18:36;;;;;;;59.15;49.22;;;23.60;59.90;;;;;;5008237;28;89693;-57
2022/09/09 07:21:03;;;;;;;60.83;49.45;;;23.60;60.00;;;;;;5012583;27;90366;-55
2022/09/09 07:23:30;;;;;;;63.50;49.70;;;23.60;59.90;;;;;;5008775;28;92452;-52
2022/09/09 07:25:57;;;;;;;61.60;49.67;;;23.60;59.80;;;;;;5011844;28;93169;-55
2022/09/09 07:28:23;;;;;;;68.30;50.40;;;23.60;60.10;;;;;;5007208;28;96799;-55
2022/09/09 07:30:57;;;;;;;67.25;51.15;;;23.60;60.30;;;;;;5000137;27;97176;-55
2022/09/09 07:33:23;;;;;;;70.53;52.13;;;23.60;60.30;;;;;;5002191;27;91214;-57
2022/09/09 07:35:50;;;;;;;75.82;53.50;;;23.60;60.40;;;;;;5005004;27;91573;-54
2022/09/09 07:38:16;;;;;;;71.70;53.22;;;23.60;60.60;;;;;;4998808;27;93408;-54
2022/09/09 07:40:43;;;;;;;78.97;53.35;;;23.60;60.60;;;;;;4998762;27;89888;-52
2022/09/09 07:43:09;;;;;;;75.82;53.05;;;23.60;60.60;;;;;;4995766;27;92191;-52
2022/09/09 07:45:35;;;;;;;69.70;52.20;;;23.60;60.70;;;;;;4999281;27;91759;-52
2022/09/09 07:48:01;;;;;;;67.75;51.78;;;23.60;60.70;;;;;;5002834;28;91784;-53
2022/09/09 07:50:27;;;;;;;72.32;52.45;;;23.70;60.60;;;;;;4998754;27;90650;-54
2022/09/09 07:52:53;;;;;;;73.93;52.33;;;23.70;60.50;;;;;;5002248;28;91120;-53
2022/09/09 07:55:25;;;;;;;68.93;51.65;;;23.70;60.40;;;;;;5004161;28;90925;-52
2022/09/09 07:57:51;;;;;;;68.95;51.95;;;23.70;60.30;;;;;;5006127;27;91467;-55
2022/09/09 08:00:18;;;;;;;70.47;51.83;;;23.60;60.20;;;;;;5006431;28;91746;-54
2022/09/09 08:02:44;;;;;;;67.05;51.97;;;23.70;60.30;;;;;;4995919;28;92007;-52
2022/09/09 08:05:09;;;;;;;68.30;51.58;;;23.70;60.30;;;;;;4999581;28;90710;-53
2022/09/09 08:07:35;;;;;;;66.55;51.97;;;23.70;60.40;;;;;;5007943;28;89728;-54
2022/09/09 08:10:02;;;;;;;66.32;51.30;;;23.60;60.30;;;;;;4998722;28;93855;-54
2022/09/09 08:12:28;;;;;;;65.55;51.60;;;23.70;60.20;;;;;;5002478;28;92065;-57
2022/09/09 08:14:53;;;;;;;68.20;51.72;;;23.60;60.20;;;;;;5003684;28;92009;-53
2022/09/09 08:17:19;;;;;;;65.03;51.33;;;23.70;60.40;;;;;;4996806;27;90527;-52
2022/09/09 08:19:45;;;;;;;67.75;51.63;;;23.70;60.40;;;;;;4993726;27;91103;-58
2022/09/09 08:22:11;;;;;;;67.38;51.53;;;23.60;60.40;;;;;;4999909;28;94106;-52
2022/09/09 08:24:36;;;;;;;65.05;50.90;;;23.60;60.30;;;;;;4996305;28;95721;-54
2022/09/09 08:27:02;;;;;;;68.53;51.53;;;23.70;60.30;;;;;;4997288;28;90137;-54
2022/09/09 08:29:28;;;;;;;65.57;51.13;;;23.60;60.50;;;;;;5001484;27;91166;-57
2022/09/09 08:31:57;;;;;;;68.68;51.75;;;23.60;60.30;;;;;;5009875;28;91027;-52
2022/09/09 08:34:26;;;;;;;66.80;51.65;;;23.60;60.40;;;;;;5009549;28;91123;-55
2022/09/09 08:36:52;;;;;;;68.25;51.22;;;23.60;60.50;;;;;;5000398;27;92707;-55
2022/09/09 08:39:20;;;;;;;65.78;51.55;;;23.60;60.40;;;;;;4992224;27;94244;-59
2022/09/09 08:42:17;;;;;;;65.43;51.33;;;23.60;60.50;;;;;;5003482;27;92457;-53
2022/09/09 08:44:55;;;;;;;67.95;51.20;;;23.60;60.40;;;;;;4998085;28;91072;-55
2022/09/09 08:47:52;;;;;;;67.72;51.40;;;23.70;60.40;;;;;;5011954;28;91041;-56
2022/09/09 08:50:28;;;;;;;67.65;51.35;;;23.60;60.50;;;;;;4988882;28;92137;-53
2022/09/09 08:53:11;;;;;;;64.53;50.83;;;23.60;60.30;;;;;;5006166;27;92608;-54
2022/09/09 08:55:49;;;;;;;67.25;51.20;;;23.60;60.40;;;;;;5002172;27;95333;-57
2022/09/09 08:58:25;;;;;;;67.30;51.25;;;23.60;60.50;;;;;;4998664;28;90749;-53
2022/09/09 09:01:21;;;;;;;66.78;51.75;;;23.60;60.50;;;;;;5003784;28;91240;-55
2022/09/09 09:04:19;;;;;;;64.95;51.25;;;23.60;60.60;;;;;;5000281;28;92433;-53
2022/09/09 09:07:11;;;;;;;64.82;51.30;;;23.70;60.60;;;;;;4994071;27;91979;-56
2022/09/09 09:09:36;;;;;;;69.03;51.78;;;23.70;60.90;;;;;;4998649;27;90566;-57
2022/09/09 09:12:27;;;;;;;69.22;51.75;;;23.70;61.50;;;;;;4996497;28;93937;-58
2022/09/09 09:14:55;;;;;;;66.35;51.83;;;23.70;61.50;;;;;;4993243;27;91689;-51
2022/09/09 09:17:23;;;;;;;73.53;52.15;;;23.70;61.50;;;;;;5000557;27;91356;-54
2022/09/09 09:19:49;;;;;;;74.40;52.70;;;23.70;61.40;;;;;;5000386;27;90462;-57
2022/09/09 09:22:20;;;;;;;81.28;53.03;;;23.70;61.30;;;;;;4996984;27;94959;-58
2022/09/09 09:24:59;;;;;;;77.13;53.83;;;23.70;61.30;;;;;;4998043;27;96632;-55
2022/09/09 09:27:34;;;;;;;77.10;53.45;;;23.70;61.20;;;;;;5007849;27;93867;-56
2022/09/09 09:30:13;;;;;;;76.10;53.90;;;23.70;61.10;;;;;;5005623;27;94116;-56
2022/09/09 09:32:43;;;;;;;78.03;53.80;;;23.70;61.10;;;;;;5002276;27;90014;-55
2022/09/09 09:35:12;;;;;;;71.00;53.10;;;23.60;61.00;;;;;;5003937;27;91423;-52
2022/09/09 09:37:40;;;;;;;74.80;53.08;;;23.70;61.00;;;;;;4996645;27;91405;-54
2022/09/09 09:40:13;;;;;;;71.88;52.88;;;23.70;60.90;;;;;;5002783;28;90709;-55
2022/09/09 09:42:58;;;;;;;72.00;52.67;;;23.70;60.80;;;;;;5001928;28;92000;-52
2022/09/09 09:45:24;;;;;;;72.47;52.83;;;23.70;60.60;;;;;;5005005;28;91549;-55
2022/09/09 09:47:59;;;;;;;70.45;52.45;;;23.80;60.60;;;;;;5003709;27;91087;-56
2022/09/09 09:50:24;;;;;;;75.10;52.45;;;23.70;60.60;;;;;;4995467;27;92619;-53
2022/09/09 09:52:56;;;;;;;72.50;52.10;;;23.60;60.60;;;;;;5000055;27;92515;-52
2022/09/09 09:55:23;;;;;;;71.03;52.35;;;23.60;60.50;;;;;;4993618;27;93781;-52
2022/09/09 09:57:49;;;;;;;67.32;51.65;;;23.70;60.40;;;;;;4995154;27;91736;-50
2022/09/09 10:00:18;;;;;;;72.47;52.08;;;23.70;60.30;;;;;;4993359;27;94413;-58
2022/09/09 10:02:45;;;;;;;68.05;51.90;;;23.70;60.50;;;;;;4996208;28;92557;-58
2022/09/09 10:05:21;;;;;;;67.93;51.60;;;23.70;60.40;;;;;;5004799;28;91213;-50
2022/09/09 10:07:59;;;;;;;66.90;51.63;;;23.70;60.20;;;;;;5007855;27;91175;-53
2022/09/09 10:10:38;;;;;;;66.28;51.75;;;23.70;60.20;;;;;;5002285;27;91465;-54
2022/09/09 10:13:17;;;;;;;66.70;51.38;;;23.70;60.20;;;;;;4999727;28;97096;-58
2022/09/09 10:16:07;;;;;;;67.10;51.35;;;23.70;60.20;;;;;;5001675;27;92049;-54
2022/09/09 10:18:33;;;;;;;65.50;51.40;;;23.80;60.10;;;;;;5002998;28;96378;-58
2022/09/09 10:21:16;;;;;;;67.05;51.38;;;23.80;60.10;;;;;;5005591;27;97816;-58
2022/09/09 10:23:45;;;;;;;69.18;51.55;;;23.80;60.10;;;;;;5006701;27;89987;-52
2022/09/09 10:26:32;;;;;;;63.92;51.25;;;23.80;60.00;;;;;;5003551;28;91316;-55
2022/09/09 10:29:29;;;;;;;66.38;51.15;;;23.80;60.00;;;;;;4999485;28;90906;-56
2022/09/09 10:32:22;;;;;;;65.35;51.13;;;23.80;60.00;;;;;;5001035;28;91570;-55
2022/09/09 10:35:00;;;;;;;64.30;50.85;;;23.80;60.00;;;;;;4999912;28;90300;-58
2022/09/09 10:37:48;;;;;;;65.50;50.70;;;23.80;59.90;;;;;;4993326;27;91863;-57
2022/09/09 10:40:32;;;;;;;64.82;50.88;;;23.80;60.00;;;;;;4998922;27;95517;-54
2022/09/09 10:43:10;;;;;;;63.05;50.65;;;23.80;60.00;;;;;;4997818;27;90662;-54
2022/09/09 10:46:04;;;;;;;67.63;52.03;;;23.70;60.10;;;;;;4998390;27;90915;-57
2022/09/09 10:49:08;;;;;;;81.63;55.70;;;23.90;60.00;;;;;;5003467;28;92154;-58
2022/09/09 10:52:15;;;;;;;76.28;54.00;;;24.00;61.80;;;;;;5002476;27;91857;-53
2022/09/09 10:54:57;;;;;;;75.10;53.13;;;23.90;61.20;;;;;;4998515;28;90009;-55
2022/09/09 10:57:38;;;;;;;74.25;53.35;;;23.90;61.00;;;;;;5000151;27;89888;-53
2022/09/09 11:00:26;;;;;;;70.25;52.80;;;23.90;61.00;;;;;;5006031;28;92329;-54
2022/09/09 11:03:00;;;;;;;68.38;52.20;;;23.90;61.00;;;;;;5002974;28;90964;-54
2022/09/09 11:05:28;;;;;;;70.00;52.30;;;23.90;60.80;;;;;;4998694;27;93913;-54
2022/09/09 11:08:25;;;;;;;68.18;52.38;;;23.80;60.80;;;;;;5002504;28;90482;-53
2022/09/09 11:11:13;;;;;;;66.53;51.85;;;23.90;60.70;;;;;;4994987;27;96936;-54
2022/09/09 11:13:54;;;;;;;67.47;51.50;;;23.90;60.80;;;;;;4993375;27;90819;-54
2022/09/09 11:16:30;;;;;;;65.22;51.25;;;23.90;60.70;;;;;;5002966;28;91352;-53
2022/09/09 11:19:18;;;;;;;64.45;51.05;;;23.80;60.70;;;;;;5002203;28;90367;-51
2022/09/09 11:21:50;;;;;;;64.75;50.83;;;23.90;60.70;;;;;;5007219;27;95192;-58
2022/09/09 11:24:27;;;;;;;64.35;51.20;;;24.00;60.50;;;;;;4999176;28;97380;-57
2022/09/09 11:26:58;;;;;;;64.63;51.05;;;24.00;60.40;;;;;;5002241;28;91928;-54
2022/09/09 11:29:52;;;;;;;64.40;50.95;;;24.00;60.60;;;;;;5007625;28;93482;-59
2022/09/09 11:32:39;;;;;;;66.18;50.80;;;24.00;60.40;;;;;;5001803;27;95571;-53
2022/09/09 11:35:27;;;;;;;63.55;50.80;;;23.90;60.60;;;;;;4996502;28;94891;-55
2022/09/09 11:38:17;;;;;;;64.18;50.88;;;24.00;60.60;;;;;;4991499;28;91677;-58
2022/09/09 11:40:44;;;;;;;64.80;51.17;;;24.10;60.30;;;;;;4996095;28;90782;-57
2022/09/09 11:43:18;;;;;;;64.25;50.90;;;24.10;60.30;;;;;;5001974;27;92340;-62
2022/09/09 11:45:52;;;;;;;63.80;50.78;;;24.20;60.30;;;;;;4995969;28;92204;-65
2022/09/09 11:48:30;;;;;;;63.50;50.85;;;24.10;60.40;;;;;;4986617;28;97743;-57
2022/09/09 11:51:10;;;;;;;64.43;50.70;;;24.10;60.70;;;;;;4999738;28;89741;-59
2022/09/09 11:53:55;;;;;;;63.08;51.08;;;24.10;60.90;;;;;;4995918;27;98333;-56
2022/09/09 11:56:46;;;;;;;64.03;50.78;;;24.00;61.10;;;;;;4996497;28;90618;-66
2022/09/09 11:59:38;;;;;;;62.42;50.40;;;24.00;61.10;;;;;;4993750;28;91615;-64
2022/09/09 12:02:28;;;;;;;64.22;50.58;;;24.00;61.00;;;;;;4991054;28;92159;-64
2022/09/09 12:05:09;;;;;;;63.38;50.75;;;24.00;61.00;;;;;;5002129;27;91365;-65
2022/09/09 12:07:42;;;;;;;64.10;50.47;;;24.00;61.00;;;;;;4998702;28;91213;-65
2022/09/09 12:10:32;;;;;;;65.93;50.60;;;24.00;61.00;;;;;;5004875;28;91304;-64
2022/09/09 12:13:15;;;;;;;66.18;50.97;;;24.00;60.90;;;;;;4998848;28;89940;-65
2022/09/09 12:15:49;;;;;;;67.95;51.70;;;24.00;61.00;;;;;;5008352;27;92159;-64
2022/09/09 12:18:25;;;;;;;67.10;52.10;;;24.10;61.00;;;;;;5018065;28;90699;-64
2022/09/09 12:21:33;;;;;;;70.72;52.15;;;24.10;60.50;;;;;;5003363;28;91737;-64
2022/09/09 12:24:25;;;;;;;69.88;51.83;;;24.10;60.70;;;;;;5006714;28;91358;-64
2022/09/09 12:26:59;;;;;;;67.05;52.00;;;24.00;60.60;;;;;;4996101;27;93201;-66
2022/09/09 12:29:39;;;;;;;72.43;51.65;;;24.00;60.80;;;;;;4992516;27;97208;-58
2022/09/09 12:32:22;;;;;;;69.63;51.97;;;24.10;61.00;;;;;;5003111;27;94539;-60
2022/09/09 12:34:54;;;;;;;68.20;52.22;;;24.10;61.30;;;;;;5005103;27;90916;-60
2022/09/09 12:37:38;;;;;;;65.88;51.47;;;24.10;61.40;;;;;;4998994;27;92856;-55
2022/09/09 12:40:25;;;;;;;77.13;51.85;;;24.20;61.40;;;;;;4999608;27;91989;-58
2022/09/09 12:42:51;;;;;;;69.45;51.78;;;24.20;61.50;;;;;;4990776;27;91731;-57
2022/09/09 12:45:21;;;;;;;68.97;51.72;;;24.20;61.20;;;;;;5001170;27;92412;-57
2022/09/09 12:47:55;;;;;;;66.22;51.42;;;24.20;61.10;;;;;;5009809;28;92010;-61
2022/09/09 12:50:27;;;;;;;66.45;51.65;;;24.30;60.60;;;;;;5010196;28;95077;-58
2022/09/09 12:52:58;;;;;;;65.65;51.40;;;24.40;60.30;;;;;;5009076;27;93808;-64
2022/09/09 12:55:34;;;;;;;64.57;51.00;;;24.50;60.10;;;;;;5015378;28;89361;-59
2022/09/09 12:58:05;;;;;;;65.45;51.20;;;24.50;59.90;;;;;;5011649;28;96158;-58
2022/09/09 13:00:31;;;;;;;64.10;51.08;;;24.50;59.80;;;;;;5006071;28;91116;-59